Time;durP1;ratioP1;P1;durP2;ratioP2;P2;SDS_P1;SDS_P2;PMS_P1;PMS_P2;Temp;Humidity;BMP_temperature;BMP_pressure;BME280_temperature;BME280_humidity;BME280_pressure;Samples;Min_cycle;Max_cycle;Signal;HPM_P1;HPM_P2
2023/05/14 00:02:00;;;;;;;5.85;5.25;;;14.70;99.90;;;;;;7385456;19;20150;-77
2023/05/14 00:04:26;;;;;;;5.80;4.80;;;14.80;99.90;;;;;;7384093;19;20177;-76
2023/05/14 00:06:52;;;;;;;6.18;5.57;;;14.80;99.90;;;;;;7385111;19;20139;-78
2023/05/14 00:09:18;;;;;;;6.00;5.40;;;14.80;99.90;;;;;;7383445;19;20143;-79
2023/05/14 00:11:43;;;;;;;5.72;4.93;;;14.80;99.90;;;;;;7384937;19;20143;-77
2023/05/14 00:14:09;;;;;;;7.85;5.10;;;14.90;99.90;;;;;;7384251;19;20135;-77
2023/05/14 00:16:35;;;;;;;5.68;5.03;;;14.80;99.90;;;;;;7386155;19;20270;-79
2023/05/14 00:19:03;;;;;;;6.15;5.00;;;14.80;99.90;;;;;;7382521;19;20159;-78
2023/05/14 00:21:30;;;;;;;6.65;5.05;;;14.80;99.90;;;;;;7384827;19;20135;-78
2023/05/14 00:23:56;;;;;;;7.10;5.32;;;14.80;99.90;;;;;;7384035;19;20147;-77
2023/05/14 00:26:22;;;;;;;6.00;5.30;;;14.80;99.90;;;;;;7384240;19;20150;-78
2023/05/14 00:28:48;;;;;;;5.95;5.22;;;14.80;99.90;;;;;;7382471;19;20214;-78
2023/05/14 00:31:16;;;;;;;6.10;5.50;;;14.70;99.90;;;;;;7383928;19;20176;-77
2023/05/14 00:33:42;;;;;;;6.40;4.57;;;14.70;99.90;;;;;;7383375;19;20247;-77
2023/05/14 00:36:08;;;;;;;6.50;5.50;;;14.70;99.90;;;;;;7383730;19;20587;-77
2023/05/14 00:38:33;;;;;;;5.82;5.22;;;14.70;99.90;;;;;;7383412;19;20467;-77
2023/05/14 00:40:59;;;;;;;6.20;5.55;;;14.80;99.90;;;;;;7381805;19;20149;-77
2023/05/14 00:43:25;;;;;;;6.05;5.07;;;14.90;99.90;;;;;;7387782;19;20150;-78
2023/05/14 00:45:52;;;;;;;5.07;4.57;;;14.80;99.90;;;;;;7390536;19;20161;-77
2023/05/14 00:48:24;;;;;;;7.82;5.28;;;14.70;99.90;;;;;;7391136;19;20154;-77
2023/05/14 00:50:50;;;;;;;6.05;5.10;;;14.70;99.90;;;;;;7392674;19;20486;-78
2023/05/14 00:53:19;;;;;;;6.70;5.57;;;14.70;99.90;;;;;;7390402;19;20130;-77
2023/05/14 00:55:47;;;;;;;6.72;5.65;;;14.80;99.90;;;;;;7393020;19;20142;-77
2023/05/14 00:58:13;;;;;;;7.10;5.47;;;14.70;99.90;;;;;;7389673;19;20143;-78
2023/05/14 01:00:40;;;;;;;6.87;5.57;;;14.70;99.90;;;;;;7387379;19;20158;-77
2023/05/14 01:03:07;;;;;;;5.43;4.93;;;14.70;99.90;;;;;;7386740;19;20514;-77
2023/05/14 01:05:51;;;;;;;6.80;6.10;;;14.60;99.90;;;;;;7390549;19;20159;-77
2023/05/14 01:08:16;;;;;;;6.67;5.37;;;14.60;99.90;;;;;;7390530;19;20548;-77
2023/05/14 01:10:53;;;;;;;5.40;4.90;;;14.40;99.90;;;;;;7388628;19;20138;-76
2023/05/14 01:13:54;;;;;;;5.90;5.13;;;14.40;99.90;;;;;;7389765;19;20155;-77
2023/05/14 01:16:22;;;;;;;6.25;5.03;;;14.10;99.90;;;;;;7389651;19;20293;-77
2023/05/14 01:18:51;;;;;;;4.82;4.07;;;14.10;99.90;;;;;;7388489;19;20237;-77
2023/05/14 01:21:36;;;;;;;6.75;4.65;;;14.00;99.90;;;;;;7389639;19;20955;-78
2023/05/14 01:24:02;;;;;;;5.20;4.70;;;13.90;99.90;;;;;;7391975;19;20127;-76
2023/05/14 01:26:30;;;;;;;5.28;4.65;;;14.00;99.90;;;;;;7381785;19;20131;-76
2023/05/14 01:29:20;;;;;;;4.90;4.40;;;13.70;99.90;;;;;;7389949;19;20175;-78
2023/05/14 01:31:48;;;;;;;4.78;4.25;;;13.60;99.90;;;;;;7389899;19;20142;-77
2023/05/14 01:34:27;;;;;;;6.43;4.72;;;13.60;99.90;;;;;;7389274;19;20549;-77
2023/05/14 01:36:55;;;;;;;5.32;4.82;;;13.50;99.90;;;;;;7390239;19;20154;-77
2023/05/14 01:39:23;;;;;;;5.43;4.68;;;13.50;99.90;;;;;;7387291;19;20146;-78
2023/05/14 01:41:51;;;;;;;5.45;4.85;;;13.80;99.90;;;;;;7390415;19;20153;-76
2023/05/14 01:44:17;;;;;;;7.30;4.85;;;13.60;99.90;;;;;;7386718;19;20247;-77
2023/05/14 01:46:44;;;;;;;5.50;4.90;;;13.40;99.90;;;;;;7389638;19;20138;-77
2023/05/14 01:49:10;;;;;;;6.20;4.82;;;13.60;99.90;;;;;;7386311;19;20167;-76
2023/05/14 01:51:36;;;;;;;5.60;5.00;;;13.60;99.90;;;;;;7389980;19;20154;-77
2023/05/14 01:54:02;;;;;;;6.20;5.00;;;13.50;99.90;;;;;;7389072;19;20474;-76
2023/05/14 01:56:28;;;;;;;5.15;4.65;;;13.30;99.90;;;;;;7389200;19;20131;-77
2023/05/14 01:58:55;;;;;;;5.75;5.10;;;13.10;99.90;;;;;;7388102;19;20578;-76
2023/05/14 02:01:21;;;;;;;6.78;5.20;;;13.20;99.90;;;;;;7388288;19;20151;-76
2023/05/14 02:03:47;;;;;;;8.00;5.05;;;12.90;99.90;;;;;;7388566;19;20138;-76
2023/05/14 02:06:13;;;;;;;6.78;5.55;;;12.90;99.90;;;;;;7387487;19;20160;-76
2023/05/14 02:08:38;;;;;;;6.63;4.97;;;13.10;99.90;;;;;;7388169;19;20131;-77
2023/05/14 02:11:04;;;;;;;6.97;5.90;;;13.50;99.90;;;;;;7387992;19;20605;-77
2023/05/14 02:13:30;;;;;;;6.25;5.40;;;13.70;99.90;;;;;;7388553;19;20487;-78
2023/05/14 02:15:56;;;;;;;6.22;5.30;;;13.70;99.90;;;;;;7388800;19;20155;-76
2023/05/14 02:18:21;;;;;;;5.22;4.72;;;13.70;99.90;;;;;;7389112;19;20164;-76
2023/05/14 02:20:47;;;;;;;8.38;5.47;;;13.70;99.90;;;;;;7383365;19;20246;-78
2023/05/14 02:23:13;;;;;;;6.18;5.57;;;13.40;99.90;;;;;;7387449;19;20143;-76
2023/05/14 02:25:39;;;;;;;6.10;5.43;;;13.30;99.90;;;;;;7388928;19;20146;-77
2023/05/14 02:28:04;;;;;;;7.13;6.05;;;13.30;99.90;;;;;;7389923;19;20131;-77
2023/05/14 02:30:30;;;;;;;5.70;5.10;;;13.50;99.90;;;;;;7386629;19;20149;-78
2023/05/14 02:32:56;;;;;;;6.40;5.25;;;13.30;99.90;;;;;;7388895;19;20139;-77
2023/05/14 02:35:22;;;;;;;9.63;5.70;;;13.40;99.90;;;;;;7388589;19;20493;-76
2023/05/14 02:37:48;;;;;;;6.22;5.63;;;13.60;99.90;;;;;;7388931;19;20150;-76
2023/05/14 02:40:13;;;;;;;7.47;5.75;;;13.70;99.90;;;;;;7387029;19;20164;-76
2023/05/14 02:42:39;;;;;;;6.53;5.55;;;13.80;99.90;;;;;;7388076;19;20143;-75
2023/05/14 02:45:06;;;;;;;6.25;5.65;;;13.90;99.90;;;;;;7386794;19;20123;-76
2023/05/14 02:47:31;;;;;;;6.57;5.40;;;13.90;99.90;;;;;;7387139;19;20134;-77
2023/05/14 02:49:57;;;;;;;6.93;5.70;;;13.80;99.90;;;;;;7388433;19;20138;-76
2023/05/14 02:52:23;;;;;;;6.73;5.43;;;14.00;99.90;;;;;;7388059;19;20614;-76
2023/05/14 02:54:49;;;;;;;7.83;5.40;;;13.90;99.90;;;;;;7388562;19;20586;-77
2023/05/14 02:57:14;;;;;;;6.77;5.53;;;13.90;99.90;;;;;;7387592;19;20548;-75
2023/05/14 02:59:40;;;;;;;6.47;5.47;;;13.90;99.90;;;;;;7380996;19;20176;-76
2023/05/14 03:02:06;;;;;;;5.90;5.28;;;14.00;99.90;;;;;;7387601;19;20153;-76
2023/05/14 03:04:31;;;;;;;6.67;4.90;;;13.80;99.90;;;;;;7386821;19;20135;-76
2023/05/14 03:06:57;;;;;;;6.13;5.40;;;14.10;99.90;;;;;;7385650;19;20345;-77
2023/05/14 03:09:23;;;;;;;5.87;5.13;;;13.90;99.90;;;;;;7386012;19;20145;-77
2023/05/14 03:11:49;;;;;;;6.07;5.47;;;13.90;99.90;;;;;;7387636;19;20161;-77
2023/05/14 03:14:17;;;;;;;6.50;5.57;;;13.90;99.90;;;;;;7386959;19;20142;-77
2023/05/14 03:16:43;;;;;;;5.73;5.13;;;14.00;99.90;;;;;;7386689;19;20161;-76
2023/05/14 03:19:09;;;;;;;6.60;5.90;;;14.00;99.90;;;;;;7385071;19;20463;-77
2023/05/14 03:21:35;;;;;;;6.30;5.70;;;13.90;99.90;;;;;;7385066;19;20162;-77
2023/05/14 03:24:01;;;;;;;5.50;5.00;;;13.90;99.90;;;;;;7388461;19;20138;-77
2023/05/14 03:26:26;;;;;;;7.47;5.50;;;13.90;99.90;;;;;;7385845;19;20206;-76
2023/05/14 03:28:52;;;;;;;7.97;5.23;;;13.90;99.90;;;;;;7387418;19;20143;-77
2023/05/14 03:31:18;;;;;;;6.30;5.50;;;13.90;99.90;;;;;;7386898;19;20168;-77
2023/05/14 03:33:44;;;;;;;6.07;5.38;;;13.90;99.90;;;;;;7385397;19;20142;-77
2023/05/14 03:36:10;;;;;;;6.33;5.23;;;13.90;99.90;;;;;;7385969;19;20598;-78
2023/05/14 03:38:35;;;;;;;5.78;5.10;;;13.90;99.90;;;;;;7385318;19;20617;-77
2023/05/14 03:41:01;;;;;;;6.03;5.27;;;13.90;99.90;;;;;;7383824;19;20159;-77
2023/05/14 03:43:27;;;;;;;8.40;5.88;;;13.70;99.90;;;;;;7386261;19;20230;-76
2023/05/14 03:45:52;;;;;;;6.60;5.13;;;13.70;99.90;;;;;;7387054;19;20159;-76
2023/05/14 03:48:19;;;;;;;7.03;5.23;;;13.50;99.90;;;;;;7385802;19;20143;-76
2023/05/14 03:50:45;;;;;;;6.23;5.47;;;13.60;99.90;;;;;;7386196;19;20138;-77
2023/05/14 03:53:11;;;;;;;6.10;5.27;;;13.80;99.90;;;;;;7380092;19;20138;-77
2023/05/14 03:55:36;;;;;;;6.70;5.50;;;13.80;99.90;;;;;;7383598;19;20175;-77
2023/05/14 03:58:04;;;;;;;5.87;5.23;;;13.80;99.90;;;;;;7386003;19;20143;-76
2023/05/14 04:00:30;;;;;;;5.93;5.30;;;13.80;99.90;;;;;;7382443;19;20154;-76
2023/05/14 04:02:56;;;;;;;5.82;5.05;;;13.70;99.90;;;;;;7387607;19;20156;-76
2023/05/14 04:05:21;;;;;;;5.75;4.97;;;13.70;99.90;;;;;;7385793;19;20158;-76
2023/05/14 04:07:47;;;;;;;5.83;5.03;;;13.70;99.90;;;;;;7384737;19;20138;-76
2023/05/14 04:10:13;;;;;;;8.52;5.22;;;13.70;99.90;;;;;;7383308;19;20138;-76
2023/05/14 04:12:39;;;;;;;6.35;5.45;;;13.70;99.90;;;;;;7387476;19;20598;-76
2023/05/14 04:15:05;;;;;;;5.90;5.30;;;13.70;99.90;;;;;;7387525;19;20867;-76
2023/05/14 04:17:31;;;;;;;6.70;5.60;;;13.70;99.90;;;;;;7385268;19;20473;-75
2023/05/14 04:19:57;;;;;;;6.03;5.13;;;13.70;99.90;;;;;;7389058;19;20150;-76
2023/05/14 04:22:22;;;;;;;5.47;4.57;;;13.70;99.90;;;;;;7391408;19;20233;-76
2023/05/14 04:24:48;;;;;;;7.87;5.50;;;13.70;99.90;;;;;;7391269;19;20166;-77
2023/05/14 04:27:19;;;;;;;5.80;5.20;;;13.80;99.90;;;;;;7391114;19;20130;-77
2023/05/14 04:29:46;;;;;;;5.50;4.90;;;13.80;99.90;;;;;;7392424;19;20153;-77
2023/05/14 04:32:11;;;;;;;6.03;4.87;;;13.80;99.90;;;;;;7390675;19;20625;-77
2023/05/14 04:34:37;;;;;;;5.90;5.20;;;13.90;99.90;;;;;;7391689;19;20228;-76
2023/05/14 04:37:03;;;;;;;6.23;5.23;;;13.90;99.90;;;;;;7391975;19;20127;-76
2023/05/14 04:39:29;;;;;;;6.15;5.43;;;13.90;99.90;;;;;;7389867;19;20677;-76
2023/05/14 04:41:54;;;;;;;5.70;5.10;;;13.80;99.90;;;;;;7390241;19;20258;-76
2023/05/14 04:44:20;;;;;;;6.70;5.30;;;13.80;99.90;;;;;;7392530;19;20590;-76
2023/05/14 04:46:46;;;;;;;7.13;5.57;;;13.70;99.90;;;;;;7391032;19;20134;-75
2023/05/14 04:49:12;;;;;;;8.27;5.47;;;13.80;99.90;;;;;;7390965;19;20194;-77
2023/05/14 04:51:37;;;;;;;5.80;5.20;;;13.80;99.90;;;;;;7390406;19;20141;-76
2023/05/14 04:54:03;;;;;;;5.40;4.67;;;13.80;99.90;;;;;;7391946;19;20150;-76
2023/05/14 04:56:29;;;;;;;5.40;4.67;;;13.80;99.90;;;;;;7391403;19;20131;-76
2023/05/14 04:58:55;;;;;;;5.83;5.03;;;13.60;99.90;;;;;;7392203;19;20209;-76
2023/05/14 05:01:22;;;;;;;6.47;5.10;;;13.80;99.90;;;;;;7390990;19;20521;-77
2023/05/14 05:03:47;;;;;;;6.93;5.53;;;13.70;99.90;;;;;;7392343;19;20187;-77
2023/05/14 05:06:13;;;;;;;7.50;6.00;;;13.80;99.90;;;;;;7391363;19;20131;-76
2023/05/14 05:08:40;;;;;;;7.73;5.13;;;13.70;99.90;;;;;;7391414;19;20131;-76
2023/05/14 05:11:06;;;;;;;6.83;5.20;;;13.70;99.90;;;;;;7389006;19;20142;-76
2023/05/14 05:13:31;;;;;;;5.78;5.18;;;13.80;99.90;;;;;;7390677;19;20481;-76
2023/05/14 05:15:57;;;;;;;6.45;5.18;;;13.50;99.90;;;;;;7390285;19;20138;-76
2023/05/14 05:18:23;;;;;;;6.10;5.50;;;13.70;99.90;;;;;;7389869;19;20548;-76
2023/05/14 05:20:49;;;;;;;6.73;5.10;;;13.60;99.90;;;;;;7386996;19;20167;-76
2023/05/14 05:23:14;;;;;;;7.93;5.95;;;13.70;99.90;;;;;;7390507;19;20178;-76
2023/05/14 05:25:40;;;;;;;6.27;5.67;;;13.70;99.90;;;;;;7389836;19;20161;-76
2023/05/14 05:28:06;;;;;;;7.03;5.10;;;13.70;99.90;;;;;;7390596;19;20507;-77
2023/05/14 05:30:32;;;;;;;6.25;5.65;;;13.50;99.90;;;;;;7388623;19;20141;-77
2023/05/14 05:32:57;;;;;;;8.90;5.70;;;13.60;99.90;;;;;;7392992;19;20598;-76
2023/05/14 05:35:23;;;;;;;6.90;5.43;;;13.60;99.90;;;;;;7390076;19;21279;-76
2023/05/14 05:37:49;;;;;;;6.15;5.30;;;13.50;99.90;;;;;;7391970;19;20138;-75
2023/05/14 05:40:15;;;;;;;6.40;5.23;;;13.60;99.90;;;;;;7387141;19;20156;-77
2023/05/14 05:42:41;;;;;;;5.83;5.27;;;13.70;99.90;;;;;;7389634;19;20146;-76
2023/05/14 05:45:07;;;;;;;5.60;4.93;;;13.70;99.90;;;;;;7391044;19;20502;-76
2023/05/14 05:47:33;;;;;;;7.13;5.37;;;13.80;99.90;;;;;;7389844;19;20158;-76
2023/05/14 05:49:59;;;;;;;5.90;5.30;;;13.70;99.90;;;;;;7389656;19;20627;-76
2023/05/14 05:52:25;;;;;;;5.97;5.03;;;13.60;99.90;;;;;;7391153;19;20143;-75
2023/05/14 05:54:51;;;;;;;5.80;5.20;;;13.60;99.90;;;;;;7389835;19;20163;-76
2023/05/14 05:57:17;;;;;;;6.83;6.10;;;13.60;99.90;;;;;;7389074;19;20146;-76
2023/05/14 05:59:42;;;;;;;6.97;5.33;;;13.50;99.90;;;;;;7386700;19;20138;-76
2023/05/14 06:02:08;;;;;;;6.90;5.60;;;13.70;99.90;;;;;;7390505;19;20142;-75
2023/05/14 06:04:34;;;;;;;7.40;5.60;;;13.70;99.90;;;;;;7389949;19;20141;-76
2023/05/14 06:06:59;;;;;;;8.03;5.93;;;13.80;99.90;;;;;;7388709;19;20139;-76
2023/05/14 06:09:25;;;;;;;6.60;5.03;;;13.80;99.90;;;;;;7387135;19;20581;-76
2023/05/14 06:11:51;;;;;;;5.13;4.43;;;13.90;99.90;;;;;;7387398;19;20151;-75
2023/05/14 06:14:17;;;;;;;6.57;5.30;;;13.90;99.90;;;;;;7387739;19;20150;-76
2023/05/14 06:16:43;;;;;;;9.20;6.23;;;13.90;99.90;;;;;;7388963;19;20224;-77
2023/05/14 06:19:08;;;;;;;6.83;5.50;;;13.90;99.90;;;;;;7388657;19;20630;-76
2023/05/14 06:21:34;;;;;;;6.10;4.97;;;13.90;99.90;;;;;;7387310;19;20152;-76
2023/05/14 06:24:00;;;;;;;10.07;5.40;;;13.90;99.90;;;;;;7389935;19;20151;-76
2023/05/14 06:26:26;;;;;;;5.72;5.13;;;14.00;99.90;;;;;;7391907;19;20925;-75
2023/05/14 06:28:51;;;;;;;7.55;5.10;;;14.10;99.90;;;;;;7388872;19;20487;-76
2023/05/14 06:31:17;;;;;;;5.70;5.07;;;14.00;99.90;;;;;;7387173;19;20126;-76
2023/05/14 06:33:44;;;;;;;6.37;5.27;;;13.80;99.90;;;;;;7385288;19;20138;-77
2023/05/14 06:36:10;;;;;;;5.90;5.00;;;14.00;99.90;;;;;;7388756;19;20141;-78
2023/05/14 06:38:36;;;;;;;5.50;4.93;;;14.00;99.90;;;;;;7386739;19;20158;-78
2023/05/14 06:41:02;;;;;;;6.67;5.50;;;14.00;99.90;;;;;;7382586;19;20574;-77
2023/05/14 06:43:28;;;;;;;7.00;5.00;;;14.10;99.90;;;;;;7383616;19;20248;-78
2023/05/14 06:45:54;;;;;;;6.77;4.90;;;13.90;99.90;;;;;;7384415;19;20150;-78
2023/05/14 06:48:21;;;;;;;4.80;4.35;;;13.80;99.90;;;;;;7385269;19;20155;-77
2023/05/14 06:50:48;;;;;;;5.10;4.53;;;13.80;99.90;;;;;;7383274;19;20156;-77
2023/05/14 06:53:14;;;;;;;5.20;4.40;;;14.00;99.90;;;;;;7388099;19;20156;-78
2023/05/14 06:55:40;;;;;;;5.85;4.70;;;14.10;99.90;;;;;;7386538;19;20564;-77
2023/05/14 06:58:06;;;;;;;6.50;5.07;;;14.30;99.90;;;;;;7389329;19;20130;-78
2023/05/14 07:00:32;;;;;;;6.90;5.75;;;14.40;99.90;;;;;;7385199;19;20154;-78
2023/05/14 07:02:58;;;;;;;6.00;4.90;;;14.40;99.90;;;;;;7387100;19;20142;-77
2023/05/14 07:05:25;;;;;;;5.90;4.82;;;14.40;99.90;;;;;;7386132;19;20163;-77
2023/05/14 07:07:51;;;;;;;6.55;5.45;;;14.30;99.90;;;;;;7386245;19;20161;-79
2023/05/14 07:10:16;;;;;;;5.80;5.15;;;14.30;99.90;;;;;;7385362;19;20932;-78
2023/05/14 07:12:43;;;;;;;8.07;5.53;;;14.00;99.90;;;;;;7386918;19;20126;-78
2023/05/14 07:15:09;;;;;;;6.67;5.37;;;14.10;99.90;;;;;;7386039;19;20147;-78
2023/05/14 07:17:35;;;;;;;5.90;5.23;;;14.20;99.90;;;;;;7385798;19;20597;-77
2023/05/14 07:20:02;;;;;;;7.33;5.60;;;14.50;99.90;;;;;;7382852;19;20147;-78
2023/05/14 07:22:28;;;;;;;5.77;5.00;;;14.60;99.90;;;;;;7387685;19;20126;-79
2023/05/14 07:24:54;;;;;;;6.65;5.05;;;14.70;99.90;;;;;;7386337;19;20145;-78
2023/05/14 07:27:19;;;;;;;6.57;5.40;;;14.70;99.90;;;;;;7387021;19;20578;-78
2023/05/14 07:29:45;;;;;;;6.23;5.37;;;14.80;99.90;;;;;;7386712;19;20135;-78
2023/05/14 07:32:11;;;;;;;7.75;5.78;;;14.90;99.90;;;;;;7386388;19;20137;-78
2023/05/14 07:34:36;;;;;;;7.57;5.70;;;14.80;99.90;;;;;;7387375;19;20131;-79
2023/05/14 07:37:02;;;;;;;7.27;5.50;;;14.80;99.90;;;;;;7379436;19;20137;-79
2023/05/14 07:39:28;;;;;;;6.20;5.20;;;14.70;99.90;;;;;;7375540;19;20182;-79
2023/05/14 07:41:54;;;;;;;5.97;5.10;;;14.60;99.90;;;;;;7379373;19;20133;-78
2023/05/14 07:44:20;;;;;;;8.32;5.88;;;14.80;99.90;;;;;;7382014;19;20130;-79
2023/05/14 07:46:46;;;;;;;6.38;5.28;;;15.00;99.90;;;;;;7377984;19;20250;-77
2023/05/14 07:49:12;;;;;;;7.27;6.00;;;14.80;99.90;;;;;;7381552;19;20149;-77
2023/05/14 07:51:38;;;;;;;7.03;5.77;;;15.10;99.90;;;;;;7385308;19;20600;-77
2023/05/14 07:54:22;;;;;;;;;;;;;;;;;;;;;
2023/05/14 07:56:49;;;;;;;9.10;5.97;;;15.40;99.90;;;;;;7391819;19;20150;-77
2023/05/14 07:59:14;;;;;;;6.28;5.40;;;15.30;99.90;;;;;;7390462;19;20133;-79
2023/05/14 08:01:43;;;;;;;5.82;5.18;;;16.00;99.90;;;;;;7392474;19;20455;-77
2023/05/14 08:04:10;;;;;;;5.85;5.20;;;16.50;99.90;;;;;;7391588;19;20847;-78
2023/05/14 08:06:36;;;;;;;5.32;4.45;;;16.60;99.90;;;;;;7391670;19;20150;-77
2023/05/14 08:09:04;;;;;;;5.53;4.85;;;17.80;99.90;;;;;;7392171;19;20621;-78
2023/05/14 08:11:30;;;;;;;5.10;4.60;;;18.60;99.90;;;;;;7392175;19;20138;-78
2023/05/14 08:13:56;;;;;;;5.85;4.93;;;18.80;99.90;;;;;;7386168;19;20149;-77
2023/05/14 08:16:22;;;;;;;5.65;5.05;;;19.40;99.90;;;;;;7381919;19;20142;-80
2023/05/14 08:18:48;;;;;;;5.55;4.68;;;19.60;99.90;;;;;;7391340;19;20173;-77
2023/05/14 08:21:14;;;;;;;5.40;4.50;;;19.40;99.90;;;;;;7389987;19;20161;-75
2023/05/14 08:23:43;;;;;;;7.03;5.05;;;19.10;99.90;;;;;;7392262;19;20142;-74
2023/05/14 08:26:08;;;;;;;5.82;4.80;;;18.60;99.90;;;;;;7391720;19;20145;-75
2023/05/14 08:28:34;;;;;;;5.53;4.65;;;18.30;99.90;;;;;;7384116;19;20146;-74
2023/05/14 08:31:00;;;;;;;7.00;5.25;;;17.80;99.90;;;;;;7391865;19;20138;-74
2023/05/14 08:33:26;;;;;;;5.97;5.32;;;17.60;99.90;;;;;;7391687;19;20146;-74
2023/05/14 08:35:52;;;;;;;8.00;5.80;;;17.50;99.90;;;;;;7388492;19;20150;-74
2023/05/14 08:38:18;;;;;;;7.40;5.85;;;17.20;99.90;;;;;;7387271;19;20234;-74
2023/05/14 08:40:56;;;;;;;6.55;5.78;;;17.10;99.90;;;;;;7387931;19;20135;-73
2023/05/14 08:43:26;;;;;;;6.53;5.82;;;17.10;99.90;;;;;;7392875;19;20138;-72
2023/05/14 08:45:59;;;;;;;7.53;6.25;;;17.20;99.90;;;;;;7392384;19;20139;-73
2023/05/14 08:48:30;;;;;;;6.32;5.65;;;17.20;99.90;;;;;;7391474;19;20147;-72
2023/05/14 08:50:58;;;;;;;7.68;5.55;;;17.20;99.90;;;;;;7387607;19;20160;-71
2023/05/14 08:53:24;;;;;;;7.55;5.78;;;17.30;99.90;;;;;;7390021;19;20131;-75
2023/05/14 08:55:52;;;;;;;7.15;5.95;;;17.30;99.90;;;;;;7389417;19;20149;-74
2023/05/14 08:58:18;;;;;;;9.07;6.90;;;17.30;99.90;;;;;;7391390;19;20150;-76
2023/05/14 09:00:44;;;;;;;6.60;5.90;;;17.30;99.90;;;;;;7381537;19;20180;-72
2023/05/14 09:03:11;;;;;;;6.35;5.25;;;17.30;99.90;;;;;;7379604;19;20135;-72
2023/05/14 09:05:38;;;;;;;7.70;6.15;;;17.30;99.90;;;;;;7391704;19;20307;-72
2023/05/14 09:08:03;;;;;;;8.68;5.68;;;17.30;99.90;;;;;;7386444;19;20287;-73
2023/05/14 09:10:29;;;;;;;8.65;6.15;;;17.40;99.90;;;;;;7386592;19;20130;-74
2023/05/14 09:12:55;;;;;;;7.72;6.40;;;17.50;99.90;;;;;;7388771;19;20130;-74
2023/05/14 09:15:22;;;;;;;7.28;6.35;;;17.60;99.90;;;;;;7389880;19;20138;-73
2023/05/14 09:17:48;;;;;;;9.02;6.25;;;17.40;99.90;;;;;;7387665;19;20676;-73
2023/05/14 09:20:15;;;;;;;8.90;6.20;;;17.30;99.90;;;;;;7386671;19;20178;-74
2023/05/14 09:22:41;;;;;;;8.80;6.80;;;17.40;99.90;;;;;;7389225;19;20158;-72
2023/05/14 09:25:10;;;;;;;7.35;6.07;;;17.40;99.90;;;;;;7380340;19;20653;-73
2023/05/14 09:27:37;;;;;;;9.25;6.75;;;17.40;99.90;;;;;;7388916;19;20863;-73
2023/05/14 09:30:12;;;;;;;8.38;5.97;;;17.80;99.90;;;;;;7382328;19;20167;-73
2023/05/14 09:32:42;;;;;;;8.75;6.60;;;17.90;99.90;;;;;;7389321;19;20847;-73
2023/05/14 09:35:12;;;;;;;8.82;6.90;;;17.60;99.90;;;;;;7385681;19;20463;-72
2023/05/14 09:37:41;;;;;;;8.80;6.95;;;17.50;99.90;;;;;;7390860;19;20157;-72
2023/05/14 09:40:10;;;;;;;6.78;5.75;;;17.50;99.90;;;;;;7386441;19;20146;-73
2023/05/14 09:42:37;;;;;;;7.47;6.13;;;17.40;99.90;;;;;;7384208;19;20160;-74
2023/05/14 09:45:06;;;;;;;6.68;5.72;;;17.40;99.90;;;;;;7380148;19;20142;-73
2023/05/14 09:47:32;;;;;;;5.95;5.05;;;17.70;99.90;;;;;;7384153;19;20173;-73
2023/05/14 09:49:57;;;;;;;7.03;5.43;;;17.70;99.90;;;;;;7387924;19;20610;-73
2023/05/14 09:52:23;;;;;;;11.90;7.57;;;17.70;99.90;;;;;;7387745;19;20146;-74
2023/05/14 09:54:51;;;;;;;8.85;6.28;;;17.70;99.90;;;;;;7374425;19;20156;-76
2023/05/14 09:57:17;;;;;;;7.07;6.10;;;17.60;99.90;;;;;;7381344;19;20158;-78
2023/05/14 09:59:42;;;;;;;7.00;6.00;;;17.50;99.90;;;;;;7375889;19;20150;-73
2023/05/14 10:02:18;;;;;;;5.50;4.85;;;17.60;99.90;;;;;;7375147;19;20135;-75
2023/05/14 10:04:44;;;;;;;6.57;5.85;;;17.50;99.90;;;;;;7386474;19;20138;-75
2023/05/14 10:07:10;;;;;;;8.63;6.80;;;17.40;99.90;;;;;;7387976;19;20502;-73
2023/05/14 10:09:40;;;;;;;6.78;5.40;;;17.40;99.90;;;;;;7384713;19;20623;-75
2023/05/14 10:12:07;;;;;;;5.53;4.60;;;17.20;99.90;;;;;;7388258;19;20150;-79
2023/05/14 10:14:39;;;;;;;7.70;4.90;;;17.20;99.90;;;;;;7387265;19;20156;-75
2023/05/14 10:17:06;;;;;;;6.65;5.18;;;17.20;99.90;;;;;;7387171;19;20164;-77
2023/05/14 10:19:34;;;;;;;7.72;5.95;;;17.40;99.90;;;;;;7383450;19;20166;-76
2023/05/14 10:22:06;;;;;;;6.50;5.65;;;17.30;99.90;;;;;;7388950;19;20188;-76
2023/05/14 10:24:32;;;;;;;6.05;5.20;;;17.60;99.90;;;;;;7388234;19;20150;-76
2023/05/14 10:26:59;;;;;;;6.78;4.97;;;17.60;99.90;;;;;;7387939;19;20153;-77
2023/05/14 10:29:36;;;;;;;5.63;4.38;;;17.50;99.90;;;;;;7389639;19;20145;-76
2023/05/14 10:32:05;;;;;;;5.07;4.43;;;17.50;99.90;;;;;;7387742;19;20182;-77
2023/05/14 10:34:45;;;;;;;5.47;4.57;;;17.60;99.90;;;;;;7386609;19;20135;-75
2023/05/14 10:37:19;;;;;;;7.85;5.03;;;17.80;99.90;;;;;;7388680;19;20133;-77
2023/05/14 10:39:53;;;;;;;5.20;4.57;;;17.80;99.90;;;;;;7386303;19;20141;-76
2023/05/14 10:42:42;;;;;;;6.45;4.32;;;17.60;99.90;;;;;;7386867;19;20130;-77
2023/05/14 10:45:13;;;;;;;6.75;4.70;;;17.70;99.90;;;;;;7386871;19;20593;-76
2023/05/14 10:47:43;;;;;;;7.07;4.75;;;17.80;99.90;;;;;;7386136;19;20509;-76
2023/05/14 10:50:11;;;;;;;5.93;4.70;;;17.90;99.90;;;;;;7388281;19;20130;-77
2023/05/14 10:52:42;;;;;;;5.10;4.53;;;18.10;99.90;;;;;;7387578;19;20130;-76
2023/05/14 10:55:11;;;;;;;6.03;4.55;;;18.30;99.90;;;;;;7389395;19;20122;-76
2023/05/14 10:57:39;;;;;;;6.90;4.28;;;18.40;99.90;;;;;;7388328;19;20163;-74
2023/05/14 11:00:07;;;;;;;4.60;4.07;;;18.20;99.90;;;;;;7384608;19;20157;-74
2023/05/14 11:02:41;;;;;;;4.68;3.95;;;18.10;99.90;;;;;;7385007;19;20131;-74
2023/05/14 11:05:09;;;;;;;6.63;4.50;;;18.10;99.90;;;;;;7386797;19;20217;-76
2023/05/14 11:07:44;;;;;;;6.88;5.20;;;17.90;99.90;;;;;;7386190;19;20134;-76
2023/05/14 11:10:15;;;;;;;6.55;4.80;;;17.80;99.90;;;;;;7383056;19;20153;-75
2023/05/14 11:12:43;;;;;;;5.53;4.68;;;17.70;99.90;;;;;;7386139;19;20138;-75
2023/05/14 11:15:12;;;;;;;5.05;4.38;;;17.60;99.90;;;;;;7377026;19;20653;-75
2023/05/14 11:17:40;;;;;;;5.32;4.80;;;17.50;99.90;;;;;;7385596;19;20146;-76
2023/05/14 11:20:08;;;;;;;5.40;4.80;;;17.40;99.90;;;;;;7381512;19;20170;-75
2023/05/14 11:22:37;;;;;;;5.65;4.30;;;17.50;99.90;;;;;;7386821;19;20169;-76
2023/05/14 11:25:04;;;;;;;5.88;5.03;;;17.40;99.90;;;;;;7386162;19;20146;-76
2023/05/14 11:27:34;;;;;;;6.03;5.03;;;17.40;99.90;;;;;;7382658;19;20210;-76
2023/05/14 11:29:59;;;;;;;5.60;4.45;;;17.40;99.90;;;;;;7384955;19;20740;-75
2023/05/14 11:32:26;;;;;;;4.55;3.78;;;17.70;99.90;;;;;;7386322;19;20887;-75
2023/05/14 11:34:52;;;;;;;4.75;4.25;;;17.90;99.90;;;;;;7381867;19;20138;-75
2023/05/14 11:37:19;;;;;;;5.82;5.07;;;18.20;99.90;;;;;;7385638;19;20146;-76
2023/05/14 11:39:49;;;;;;;5.90;4.60;;;18.60;99.90;;;;;;7385251;19;20131;-75
2023/05/14 11:42:17;;;;;;;5.53;4.53;;;18.70;99.90;;;;;;7386977;19;20126;-75
2023/05/14 11:44:50;;;;;;;6.40;4.60;;;18.60;99.90;;;;;;7386035;19;20150;-75
2023/05/14 11:47:18;;;;;;;6.22;3.95;;;18.50;99.90;;;;;;7384948;19;20486;-76
2023/05/14 11:49:44;;;;;;;6.68;4.53;;;18.60;99.90;;;;;;7382761;19;20146;-76
2023/05/14 11:52:13;;;;;;;5.75;4.35;;;18.70;99.90;;;;;;7386231;19;20135;-76
2023/05/14 11:54:41;;;;;;;6.80;3.88;;;18.60;99.90;;;;;;7385844;19;20142;-76
2023/05/14 11:57:16;;;;;;;6.47;4.20;;;18.50;99.90;;;;;;7387246;19;20126;-77
2023/05/14 11:59:42;;;;;;;5.32;4.20;;;18.40;99.90;;;;;;7385295;19;20150;-77
2023/05/14 12:02:10;;;;;;;4.75;4.03;;;18.30;99.90;;;;;;7384112;19;20143;-76
2023/05/14 12:04:36;;;;;;;4.68;3.97;;;18.30;99.90;;;;;;7386153;19;20146;-75
2023/05/14 12:07:08;;;;;;;4.90;4.25;;;18.40;99.90;;;;;;7386817;19;20149;-76
2023/05/14 12:09:40;;;;;;;4.40;3.30;;;18.40;99.90;;;;;;7384887;19;20150;-75
2023/05/14 12:12:11;;;;;;;6.55;3.80;;;18.30;99.90;;;;;;7385434;19;20551;-76
2023/05/14 12:14:40;;;;;;;4.93;4.05;;;18.40;99.90;;;;;;7387009;19;20545;-76
2023/05/14 12:17:24;;;;;;;4.45;3.53;;;18.60;99.90;;;;;;7385876;19;20153;-75
2023/05/14 12:19:51;;;;;;;3.80;3.40;;;18.60;99.90;;;;;;7384112;19;20208;-76
2023/05/14 12:22:20;;;;;;;4.00;3.58;;;18.70;99.90;;;;;;7383102;19;20143;-75
2023/05/14 12:24:58;;;;;;;4.40;3.33;;;18.80;99.90;;;;;;7376630;19;20581;-76
2023/05/14 12:27:25;;;;;;;5.13;3.40;;;18.80;99.90;;;;;;7386587;19;20554;-77
2023/05/14 12:30:02;;;;;;;3.92;3.15;;;18.90;99.90;;;;;;7386221;19;20149;-75
2023/05/14 12:32:35;;;;;;;3.88;3.30;;;18.80;99.90;;;;;;7386687;19;20144;-76
2023/05/14 12:35:00;;;;;;;3.05;2.72;;;18.90;99.90;;;;;;7384315;19;20131;-76
2023/05/14 12:37:27;;;;;;;3.50;3.10;;;18.90;99.90;;;;;;7384458;19;20210;-76
2023/05/14 12:39:53;;;;;;;4.43;3.30;;;19.10;99.90;;;;;;7391980;19;20146;-76
2023/05/14 12:42:18;;;;;;;5.35;3.05;;;19.20;99.90;;;;;;7392060;19;20194;-76
2023/05/14 12:44:44;;;;;;;2.67;2.47;;;19.10;99.90;;;;;;7388837;19;20150;-76
2023/05/14 12:47:10;;;;;;;2.97;2.60;;;19.10;99.90;;;;;;7391480;19;20142;-77
2023/05/14 12:49:36;;;;;;;3.40;2.80;;;18.90;99.90;;;;;;7389739;19;20486;-77